sensor_id;sensor_type;location;lat;lon;timestamp;pressure;altitude;pressure_sealevel;temperature;humidity
83100;BME280;72972;51.784;4.660;2023-12-20T00:00:58;101857.03;;;6.63;89.36
83100;BME280;72972;51.784;4.660;2023-12-20T00:03:27;101871.78;;;6.70;90.09
83100;BME280;72972;51.784;4.660;2023-12-20T00:05:52;101873.53;;;6.71;89.42
83100;BME280;72972;51.784;4.660;2023-12-20T00:08:18;101863.63;;;6.70;88.72
83100;BME280;72972;51.784;4.660;2023-12-20T00:10:44;101853.06;;;6.58;89.33
83100;BME280;72972;51.784;4.660;2023-12-20T00:13:10;101882.59;;;6.62;89.07
83100;BME280;72972;51.784;4.660;2023-12-20T00:15:39;101875.84;;;6.66;88.74
83100;BME280;72972;51.784;4.660;2023-12-20T00:18:04;101887.47;;;6.59;89.18
83100;BME280;72972;51.784;4.660;2023-12-20T00:20:32;101883.03;;;6.58;88.88
83100;BME280;72972;51.784;4.660;2023-12-20T00:23:00;101888.59;;;6.66;88.97
83100;BME280;72972;51.784;4.660;2023-12-20T00:25:26;101886.59;;;6.68;89.33
83100;BME280;72972;51.784;4.660;2023-12-20T00:27:55;101884.72;;;6.68;89.09
83100;BME280;72972;51.784;4.660;2023-12-20T00:30:20;101889.16;;;6.69;89.31
83100;BME280;72972;51.784;4.660;2023-12-20T00:32:46;101894.47;;;6.61;89.77
83100;BME280;72972;51.784;4.660;2023-12-20T00:35:13;101898.66;;;6.65;89.78
83100;BME280;72972;51.784;4.660;2023-12-20T00:37:39;101875.25;;;6.63;89.03
83100;BME280;72972;51.784;4.660;2023-12-20T00:40:06;101879.00;;;6.71;88.89
83100;BME280;72972;51.784;4.660;2023-12-20T00:42:32;101873.69;;;6.60;89.34
83100;BME280;72972;51.784;4.660;2023-12-20T00:44:59;101879.00;;;6.62;89.50
83100;BME280;72972;51.784;4.660;2023-12-20T00:47:25;101874.41;;;6.62;89.57
83100;BME280;72972;51.784;4.660;2023-12-20T00:49:50;101883.28;;;6.64;89.37
83100;BME280;72972;51.784;4.660;2023-12-20T00:52:16;101874.41;;;6.62;89.45
83100;BME280;72972;51.784;4.660;2023-12-20T00:54:45;101881.44;;;6.55;90.08
83100;BME280;72972;51.784;4.660;2023-12-20T00:57:13;101879.16;;;6.51;89.60
83100;BME280;72972;51.784;4.660;2023-12-20T00:59:39;101877.28;;;6.51;90.17
83100;BME280;72972;51.784;4.660;2023-12-20T01:02:04;101874.44;;;6.53;89.91
83100;BME280;72972;51.784;4.660;2023-12-20T01:04:30;101876.16;;;6.44;89.72
83100;BME280;72972;51.784;4.660;2023-12-20T01:06:56;101882.47;;;6.45;89.88
83100;BME280;72972;51.784;4.660;2023-12-20T01:09:24;101893.94;;;6.48;89.83
83100;BME280;72972;51.784;4.660;2023-12-20T01:11:52;101886.78;;;6.47;89.73
83100;BME280;72972;51.784;4.660;2023-12-20T01:14:20;101886.78;;;6.47;90.13
83100;BME280;72972;51.784;4.660;2023-12-20T01:16:47;101885.19;;;6.45;89.29
83100;BME280;72972;51.784;4.660;2023-12-20T01:19:13;101882.91;;;6.40;89.79
83100;BME280;72972;51.784;4.660;2023-12-20T01:21:40;101888.19;;;6.42;90.11
83100;BME280;72972;51.784;4.660;2023-12-20T01:24:08;101879.19;;;6.41;90.34
83100;BME280;72972;51.784;4.660;2023-12-20T01:26:33;101875.31;;;6.44;90.26
83100;BME280;72972;51.784;4.660;2023-12-20T01:28:59;101878.31;;;6.41;90.40
83100;BME280;72972;51.784;4.660;2023-12-20T01:31:26;101869.56;;;6.37;90.05
83100;BME280;72972;51.784;4.660;2023-12-20T01:33:52;101857.25;;;6.33;90.60
83100;BME280;72972;51.784;4.660;2023-12-20T01:36:18;101863.41;;;6.35;90.64
83100;BME280;72972;51.784;4.660;2023-12-20T01:38:45;101865.72;;;6.40;90.84
83100;BME280;72972;51.784;4.660;2023-12-20T01:41:10;101878.31;;;6.50;90.12
83100;BME280;72972;51.784;4.660;2023-12-20T01:43:36;101873.16;;;6.47;90.23
83100;BME280;72972;51.784;4.660;2023-12-20T01:46:02;101880.16;;;6.50;90.15
83100;BME280;72972;51.784;4.660;2023-12-20T01:48:29;101870.28;;;6.49;90.56
83100;BME280;72972;51.784;4.660;2023-12-20T01:50:55;101874.84;;;6.58;90.10
83100;BME280;72972;51.784;4.660;2023-12-20T01:53:23;101878.84;;;6.63;89.54
83100;BME280;72972;51.784;4.660;2023-12-20T01:55:52;101868.53;;;6.67;89.37
83100;BME280;72972;51.784;4.660;2023-12-20T01:58:23;101862.19;;;6.66;88.79
83100;BME280;72972;51.784;4.660;2023-12-20T02:00:49;101870.50;;;6.74;89.30
83100;BME280;72972;51.784;4.660;2023-12-20T02:03:16;101880.53;;;6.83;88.83
83100;BME280;72972;51.784;4.660;2023-12-20T02:05:42;101873.53;;;6.81;88.57
83100;BME280;72972;51.784;4.660;2023-12-20T02:08:08;101865.50;;;6.79;88.85
83100;BME280;72972;51.784;4.660;2023-12-20T02:10:34;101849.28;;;6.78;88.66
83100;BME280;72972;51.784;4.660;2023-12-20T02:12:59;101864.91;;;6.85;88.71
83100;BME280;72972;51.784;4.660;2023-12-20T02:15:25;101859.59;;;6.84;89.18
83100;BME280;72972;51.784;4.660;2023-12-20T02:17:54;101860.13;;;6.87;89.11
83100;BME280;72972;51.784;4.660;2023-12-20T02:20:19;101861.16;;;6.86;89.18
83100;BME280;72972;51.784;4.660;2023-12-20T02:22:45;101854.69;;;6.87;89.30
83100;BME280;72972;51.784;4.660;2023-12-20T02:25:11;101854.00;;;6.85;89.28
83100;BME280;72972;51.784;4.660;2023-12-20T02:27:37;101872.34;;;6.93;89.46
83100;BME280;72972;51.784;4.660;2023-12-20T02:30:04;101871.19;;;6.86;89.95
83100;BME280;72972;51.784;4.660;2023-12-20T02:32:33;101877.38;;;6.88;90.02
83100;BME280;72972;51.784;4.660;2023-12-20T02:35:01;101864.91;;;6.85;89.48
83100;BME280;72972;51.784;4.660;2023-12-20T02:37:27;101869.34;;;6.86;89.09
83100;BME280;72972;51.784;4.660;2023-12-20T02:39:53;101885.53;;;6.97;88.87
83100;BME280;72972;51.784;4.660;2023-12-20T02:42:18;101862.41;;;6.92;88.56
83100;BME280;72972;51.784;4.660;2023-12-20T02:44:44;101857.84;;;6.92;88.92
83100;BME280;72972;51.784;4.660;2023-12-20T02:47:09;101864.69;;;6.96;88.80
83100;BME280;72972;51.784;4.660;2023-12-20T02:49:37;101862.56;;;6.90;89.19
83100;BME280;72972;51.784;4.660;2023-12-20T02:52:04;101854.06;;;7.03;88.79
83100;BME280;72972;51.784;4.660;2023-12-20T02:54:29;101837.03;;;6.91;88.76
83100;BME280;72972;51.784;4.660;2023-12-20T02:56:55;101843.59;;;6.98;88.25
83100;BME280;72972;51.784;4.660;2023-12-20T02:59:20;101851.19;;;7.04;88.73
83100;BME280;72972;51.784;4.660;2023-12-20T03:01:46;101843.28;;;7.01;88.77
83100;BME280;72972;51.784;4.660;2023-12-20T03:04:14;101835.97;;;7.02;89.02
83100;BME280;72972;51.784;4.660;2023-12-20T03:06:40;101835.84;;;7.03;88.45
83100;BME280;72972;51.784;4.660;2023-12-20T03:09:06;101826.22;;;6.99;89.26
83100;BME280;72972;51.784;4.660;2023-12-20T03:11:34;101833.72;;;6.97;89.24
83100;BME280;72972;51.784;4.660;2023-12-20T03:13:59;101830.25;;;6.95;88.78
83100;BME280;72972;51.784;4.660;2023-12-20T03:16:25;101840.28;;;6.95;89.43
83100;BME280;72972;51.784;4.660;2023-12-20T03:18:51;101832.53;;;7.00;89.37
83100;BME280;72972;51.784;4.660;2023-12-20T03:21:16;101827.22;;;6.98;89.53
83100;BME280;72972;51.784;4.660;2023-12-20T03:23:42;101837.13;;;6.99;89.01
83100;BME280;72972;51.784;4.660;2023-12-20T03:26:09;101847.19;;;6.99;89.44
83100;BME280;72972;51.784;4.660;2023-12-20T03:28:37;101830.69;;;7.00;89.45
83100;BME280;72972;51.784;4.660;2023-12-20T03:31:06;101824.19;;;7.01;89.09
83100;BME280;72972;51.784;4.660;2023-12-20T03:33:31;101818.44;;;7.04;89.09
83100;BME280;72972;51.784;4.660;2023-12-20T03:36:00;101815.88;;;7.03;89.09
83100;BME280;72972;51.784;4.660;2023-12-20T03:38:26;101828.34;;;7.05;88.88
83100;BME280;72972;51.784;4.660;2023-12-20T03:40:51;101823.75;;;7.06;89.09
83100;BME280;72972;51.784;4.660;2023-12-20T03:43:17;101827.34;;;7.06;89.19
83100;BME280;72972;51.784;4.660;2023-12-20T03:45:43;101843.56;;;7.08;88.86
83100;BME280;72972;51.784;4.660;2023-12-20T03:48:09;101829.06;;;7.07;88.23
83100;BME280;72972;51.784;4.660;2023-12-20T03:50:35;101832.19;;;7.12;87.72
83100;BME280;72972;51.784;4.660;2023-12-20T03:53:01;101830.38;;;7.03;87.93
83100;BME280;72972;51.784;4.660;2023-12-20T03:55:27;101826.94;;;7.01;87.86
83100;BME280;72972;51.784;4.660;2023-12-20T03:57:52;101814.84;;;7.04;87.66
83100;BME280;72972;51.784;4.660;2023-12-20T04:00:19;101816.91;;;7.02;87.37
83100;BME280;72972;51.784;4.660;2023-12-20T04:02:45;101823.47;;;6.99;87.17
83100;BME280;72972;51.784;4.660;2023-12-20T04:05:11;101825.69;;;6.96;87.08
83100;BME280;72972;51.784;4.660;2023-12-20T04:07:39;101810.44;;;6.93;87.20
83100;BME280;72972;51.784;4.660;2023-12-20T04:10:05;101808.59;;;6.94;86.50
83100;BME280;72972;51.784;4.660;2023-12-20T04:12:32;101824.38;;;6.90;86.72
83100;BME280;72972;51.784;4.660;2023-12-20T04:15:00;101825.69;;;6.86;86.67
83100;BME280;72972;51.784;4.660;2023-12-20T04:17:26;101831.59;;;6.82;87.37
83100;BME280;72972;51.784;4.660;2023-12-20T04:19:51;101831.94;;;6.69;87.29
83100;BME280;72972;51.784;4.660;2023-12-20T04:22:18;101844.13;;;6.75;87.57
83100;BME280;72972;51.784;4.660;2023-12-20T04:24:44;101828.59;;;6.75;87.20
83100;BME280;72972;51.784;4.660;2023-12-20T04:27:13;101829.78;;;6.73;87.07
83100;BME280;72972;51.784;4.660;2023-12-20T04:29:38;101825.72;;;6.77;87.31
83100;BME280;72972;51.784;4.660;2023-12-20T04:32:04;101840.22;;;6.77;87.26
83100;BME280;72972;51.784;4.660;2023-12-20T04:34:30;101832.34;;;6.74;87.73
83100;BME280;72972;51.784;4.660;2023-12-20T04:36:56;101826.31;;;6.71;87.48
83100;BME280;72972;51.784;4.660;2023-12-20T04:39:22;101833.50;;;6.72;87.75
83100;BME280;72972;51.784;4.660;2023-12-20T04:41:50;101830.66;;;6.64;87.52
83100;BME280;72972;51.784;4.660;2023-12-20T04:44:16;101836.81;;;6.66;87.96
83100;BME280;72972;51.784;4.660;2023-12-20T04:46:42;101840.69;;;6.63;88.23
83100;BME280;72972;51.784;4.660;2023-12-20T04:49:07;101816.59;;;6.59;88.48
83100;BME280;72972;51.784;4.660;2023-12-20T04:51:33;101821.63;;;6.63;88.37
83100;BME280;72972;51.784;4.660;2023-12-20T04:53:59;101830.81;;;6.62;88.20
83100;BME280;72972;51.784;4.660;2023-12-20T04:56:25;101812.03;;;6.50;88.40
83100;BME280;72972;51.784;4.660;2023-12-20T04:58:51;101819.78;;;6.54;88.18
83100;BME280;72972;51.784;4.660;2023-12-20T05:01:16;101819.94;;;6.53;88.71
83100;BME280;72972;51.784;4.660;2023-12-20T05:03:42;101822.94;;;6.50;89.02
83100;BME280;72972;51.784;4.660;2023-12-20T05:06:08;101804.31;;;6.36;89.08
83100;BME280;72972;51.784;4.660;2023-12-20T05:08:34;101804.63;;;6.33;89.33
83100;BME280;72972;51.784;4.660;2023-12-20T05:10:59;101805.34;;;6.35;88.70
83100;BME280;72972;51.784;4.660;2023-12-20T05:13:25;101808.34;;;6.41;88.72
83100;BME280;72972;51.784;4.660;2023-12-20T05:15:50;101821.53;;;6.36;88.52
83100;BME280;72972;51.784;4.660;2023-12-20T05:18:16;101820.66;;;6.36;88.52
83100;BME280;72972;51.784;4.660;2023-12-20T05:20:41;101813.94;;;6.30;88.11
83100;BME280;72972;51.784;4.660;2023-12-20T05:23:07;101806.50;;;6.23;87.91
83100;BME280;72972;51.784;4.660;2023-12-20T05:25:33;101813.81;;;6.32;88.44
83100;BME280;72972;51.784;4.660;2023-12-20T05:27:58;101816.25;;;6.35;88.18
83100;BME280;72972;51.784;4.660;2023-12-20T05:30:24;101818.09;;;6.34;88.18
83100;BME280;72972;51.784;4.660;2023-12-20T05:32:49;101818.09;;;6.34;88.22
83100;BME280;72972;51.784;4.660;2023-12-20T05:35:15;101811.22;;;6.30;87.93
83100;BME280;72972;51.784;4.660;2023-12-20T05:37:41;101821.69;;;6.35;88.10
83100;BME280;72972;51.784;4.660;2023-12-20T05:40:07;101815.22;;;6.36;88.12
83100;BME280;72972;51.784;4.660;2023-12-20T05:42:36;101811.94;;;6.32;88.16
83100;BME280;72972;51.784;4.660;2023-12-20T05:45:05;101819.25;;;6.41;87.62
83100;BME280;72972;51.784;4.660;2023-12-20T05:47:31;101804.75;;;6.31;87.53
83100;BME280;72972;51.784;4.660;2023-12-20T05:49:56;101820.94;;;6.42;87.95
83100;BME280;72972;51.784;4.660;2023-12-20T05:52:22;101814.50;;;6.43;87.88
83100;BME280;72972;51.784;4.660;2023-12-20T05:54:48;101817.34;;;6.42;88.36
83100;BME280;72972;51.784;4.660;2023-12-20T05:57:13;101806.91;;;6.37;88.22
83100;BME280;72972;51.784;4.660;2023-12-20T05:59:39;101810.34;;;6.39;88.27
83100;BME280;72972;51.784;4.660;2023-12-20T06:02:05;101820.22;;;6.40;88.58
83100;BME280;72972;51.784;4.660;2023-12-20T06:04:31;101818.53;;;6.39;88.90
83100;BME280;72972;51.784;4.660;2023-12-20T06:06:57;101807.34;;;6.33;89.22
83100;BME280;72972;51.784;4.660;2023-12-20T06:09:22;101816.09;;;6.36;89.39
83100;BME280;72972;51.784;4.660;2023-12-20T06:11:48;101816.38;;;6.43;88.72
83100;BME280;72972;51.784;4.660;2023-12-20T06:14:14;101786.28;;;6.25;88.77
83100;BME280;72972;51.784;4.660;2023-12-20T06:16:39;101806.59;;;6.40;88.67
83100;BME280;72972;51.784;4.660;2023-12-20T06:19:08;101818.81;;;6.46;89.09
83100;BME280;72972;51.784;4.660;2023-12-20T06:21:33;101819.09;;;6.43;88.92
83100;BME280;72972;51.784;4.660;2023-12-20T06:23:59;101821.25;;;6.49;88.34
83100;BME280;72972;51.784;4.660;2023-12-20T06:26:28;101816.63;;;6.49;88.41
83100;BME280;72972;51.784;4.660;2023-12-20T06:28:54;101831.41;;;6.56;88.57
83100;BME280;72972;51.784;4.660;2023-12-20T06:31:22;101824.50;;;6.62;87.81
83100;BME280;72972;51.784;4.660;2023-12-20T06:33:48;101826.63;;;6.58;88.50
83100;BME280;72972;51.784;4.660;2023-12-20T06:36:23;101819.03;;;6.62;88.45
83100;BME280;72972;51.784;4.660;2023-12-20T06:39:09;101823.31;;;6.64;88.65
83100;BME280;72972;51.784;4.660;2023-12-20T06:41:34;101807.72;;;6.57;88.39
83100;BME280;72972;51.784;4.660;2023-12-20T06:44:00;101795.09;;;6.56;88.65
83100;BME280;72972;51.784;4.660;2023-12-20T06:46:25;101822.16;;;6.76;88.08
83100;BME280;72972;51.784;4.660;2023-12-20T06:48:51;101809.25;;;6.69;88.45
83100;BME280;72972;51.784;4.660;2023-12-20T06:51:17;101806.94;;;6.74;88.35
83100;BME280;72972;51.784;4.660;2023-12-20T06:53:44;101804.94;;;6.76;88.10
83100;BME280;72972;51.784;4.660;2023-12-20T06:56:13;101796.03;;;6.74;87.85
83100;BME280;72972;51.784;4.660;2023-12-20T06:58:38;101800.06;;;6.79;88.33
83100;BME280;72972;51.784;4.660;2023-12-20T07:01:04;101789.44;;;6.76;88.19
83100;BME280;72972;51.784;4.660;2023-12-20T07:03:30;101790.44;;;6.75;88.20
83100;BME280;72972;51.784;4.660;2023-12-20T07:05:56;101781.34;;;6.84;88.06
83100;BME280;72972;51.784;4.660;2023-12-20T07:08:21;101794.09;;;6.93;87.59
83100;BME280;72972;51.784;4.660;2023-12-20T07:10:50;101790.38;;;6.94;87.54
83100;BME280;72972;51.784;4.660;2023-12-20T07:13:15;101799.41;;;6.95;87.49
83100;BME280;72972;51.784;4.660;2023-12-20T07:15:44;101792.69;;;6.89;87.51
83100;BME280;72972;51.784;4.660;2023-12-20T07:18:11;101795.88;;;6.85;87.72
83100;BME280;72972;51.784;4.660;2023-12-20T07:20:38;101805.50;;;6.79;87.90
83100;BME280;72972;51.784;4.660;2023-12-20T07:23:03;101799.03;;;6.80;88.19
83100;BME280;72972;51.784;4.660;2023-12-20T07:25:29;101799.63;;;6.74;88.49
83100;BME280;72972;51.784;4.660;2023-12-20T07:27:58;101795.47;;;6.70;88.72
83100;BME280;72972;51.784;4.660;2023-12-20T07:30:25;101793.75;;;6.69;88.10
83100;BME280;72972;51.784;4.660;2023-12-20T07:32:51;101777.00;;;6.64;88.67
83100;BME280;72972;51.784;4.660;2023-12-20T07:35:20;101792.63;;;6.72;88.27
83100;BME280;72972;51.784;4.660;2023-12-20T07:37:46;101802.97;;;6.68;88.58
83100;BME280;72972;51.784;4.660;2023-12-20T07:40:15;101802.53;;;6.63;89.16
83100;BME280;72972;51.784;4.660;2023-12-20T07:42:44;101797.22;;;6.62;88.75
83100;BME280;72972;51.784;4.660;2023-12-20T07:45:25;101804.28;;;6.55;88.96
83100;BME280;72972;51.784;4.660;2023-12-20T07:47:51;101785.25;;;6.45;89.17
83100;BME280;72972;51.784;4.660;2023-12-20T07:50:16;101789.06;;;6.52;88.79
83100;BME280;72972;51.784;4.660;2023-12-20T07:52:42;101796.97;;;6.55;89.03
83100;BME280;72972;51.784;4.660;2023-12-20T07:55:08;101810.28;;;6.58;89.01
83100;BME280;72972;51.784;4.660;2023-12-20T07:57:34;101807.56;;;6.58;89.40
83100;BME280;72972;51.784;4.660;2023-12-20T08:00:00;101806.88;;;6.56;89.23
83100;BME280;72972;51.784;4.660;2023-12-20T08:02:25;101803.72;;;6.51;89.26
83100;BME280;72972;51.784;4.660;2023-12-20T08:04:54;101802.69;;;6.52;89.65
83100;BME280;72972;51.784;4.660;2023-12-20T08:07:20;101800.84;;;6.53;89.13
83100;BME280;72972;51.784;4.660;2023-12-20T08:09:45;101812.31;;;6.56;89.64
83100;BME280;72972;51.784;4.660;2023-12-20T08:12:11;101819.47;;;6.57;89.41
83100;BME280;72972;51.784;4.660;2023-12-20T08:14:36;101821.16;;;6.68;89.33
83100;BME280;72972;51.784;4.660;2023-12-20T08:17:02;101799.97;;;6.52;89.77
83100;BME280;72972;51.784;4.660;2023-12-20T08:19:28;101816.28;;;6.71;89.71
83100;BME280;72972;51.784;4.660;2023-12-20T08:21:54;101833.38;;;6.73;89.55
83100;BME280;72972;51.784;4.660;2023-12-20T08:24:20;101833.59;;;6.80;89.56
83100;BME280;72972;51.784;4.660;2023-12-20T08:26:45;101825.13;;;6.83;89.90
83100;BME280;72972;51.784;4.660;2023-12-20T08:29:13;101806.75;;;6.85;89.40
83100;BME280;72972;51.784;4.660;2023-12-20T08:31:39;101806.31;;;6.89;89.37
83100;BME280;72972;51.784;4.660;2023-12-20T08:34:05;101808.91;;;6.91;89.78
83100;BME280;72972;51.784;4.660;2023-12-20T08:36:30;101805.16;;;6.92;89.38
83100;BME280;72972;51.784;4.660;2023-12-20T08:38:56;101796.66;;;6.95;89.40
83100;BME280;72972;51.784;4.660;2023-12-20T08:41:22;101785.81;;;6.85;89.64
83100;BME280;72972;51.784;4.660;2023-12-20T08:43:47;101801.38;;;7.02;89.30
83100;BME280;72972;51.784;4.660;2023-12-20T08:46:14;101798.91;;;7.09;88.89
83100;BME280;72972;51.784;4.660;2023-12-20T08:48:40;101799.78;;;7.09;89.18
83100;BME280;72972;51.784;4.660;2023-12-20T08:51:05;101815.53;;;7.15;89.17
83100;BME280;72972;51.784;4.660;2023-12-20T08:53:34;101792.56;;;7.08;88.55
83100;BME280;72972;51.784;4.660;2023-12-20T08:56:00;101825.84;;;7.22;88.79
83100;BME280;72972;51.784;4.660;2023-12-20T08:58:29;101819.50;;;7.21;89.12
83100;BME280;72972;51.784;4.660;2023-12-20T09:00:55;101828.97;;;7.27;88.41
83100;BME280;72972;51.784;4.660;2023-12-20T09:03:21;101817.66;;;7.22;88.96
83100;BME280;72972;51.784;4.660;2023-12-20T09:05:46;101813.38;;;7.19;89.46
83100;BME280;72972;51.784;4.660;2023-12-20T09:08:12;101827.25;;;7.26;89.56
83100;BME280;72972;51.784;4.660;2023-12-20T09:10:38;101820.06;;;7.25;89.58
83100;BME280;72972;51.784;4.660;2023-12-20T09:13:03;101813.59;;;7.26;89.46
83100;BME280;72972;51.784;4.660;2023-12-20T09:15:29;101777.66;;;7.12;89.57
83100;BME280;72972;51.784;4.660;2023-12-20T09:17:55;101808.72;;;7.29;89.53
83100;BME280;72972;51.784;4.660;2023-12-20T09:20:21;101802.19;;;7.40;89.30
83100;BME280;72972;51.784;4.660;2023-12-20T09:22:49;101795.78;;;7.49;88.90
83100;BME280;72972;51.784;4.660;2023-12-20T09:25:15;101808.69;;;7.56;88.57
83100;BME280;72972;51.784;4.660;2023-12-20T09:27:43;101792.13;;;7.58;88.89
83100;BME280;72972;51.784;4.660;2023-12-20T09:30:09;101803.31;;;7.64;88.17
83100;BME280;72972;51.784;4.660;2023-12-20T09:32:35;101787.09;;;7.63;88.61
83100;BME280;72972;51.784;4.660;2023-12-20T09:35:04;101798.94;;;7.71;88.15
83100;BME280;72972;51.784;4.660;2023-12-20T09:37:31;101797.47;;;7.77;88.44
83100;BME280;72972;51.784;4.660;2023-12-20T09:40:00;101805.34;;;7.80;87.66
83100;BME280;72972;51.784;4.660;2023-12-20T09:45:02;101796.84;;;7.83;87.59
83100;BME280;72972;51.784;4.660;2023-12-20T09:47:29;101773.88;;;7.76;87.32
83100;BME280;72972;51.784;4.660;2023-12-20T09:49:55;101805.25;;;7.89;87.38
83100;BME280;72972;51.784;4.660;2023-12-20T09:52:25;101795.41;;;7.79;87.22
83100;BME280;72972;51.784;4.660;2023-12-20T09:54:55;101803.53;;;7.88;87.87
83100;BME280;72972;51.784;4.660;2023-12-20T09:57:21;101780.94;;;7.78;87.40
83100;BME280;72972;51.784;4.660;2023-12-20T09:59:46;101803.63;;;7.96;87.02
83100;BME280;72972;51.784;4.660;2023-12-20T10:02:13;101816.81;;;8.01;87.18
83100;BME280;72972;51.784;4.660;2023-12-20T10:04:46;101813.22;;;8.00;87.56
83100;BME280;72972;51.784;4.660;2023-12-20T10:07:15;101813.78;;;8.04;87.42
83100;BME280;72972;51.784;4.660;2023-12-20T10:09:42;101777.03;;;7.81;87.19
83100;BME280;72972;51.784;4.660;2023-12-20T10:12:07;101779.91;;;7.97;86.82
83100;BME280;72972;51.784;4.660;2023-12-20T10:14:33;101781.00;;;8.04;86.88
83100;BME280;72972;51.784;4.660;2023-12-20T10:17:03;101788.25;;;8.13;86.65
83100;BME280;72972;51.784;4.660;2023-12-20T10:19:29;101777.63;;;8.10;86.87
83100;BME280;72972;51.784;4.660;2023-12-20T10:21:55;101793.50;;;8.24;86.01
83100;BME280;72972;51.784;4.660;2023-12-20T10:24:23;101760.53;;;8.08;86.65
83100;BME280;72972;51.784;4.660;2023-12-20T10:27:04;101789.81;;;8.33;86.15
83100;BME280;72972;51.784;4.660;2023-12-20T10:29:36;101780.19;;;8.29;86.87
83100;BME280;72972;51.784;4.660;2023-12-20T10:32:22;101763.88;;;8.19;86.57
83100;BME280;72972;51.784;4.660;2023-12-20T10:34:49;101769.34;;;8.19;86.28
83100;BME280;72972;51.784;4.660;2023-12-20T10:37:17;101792.53;;;8.33;86.48
83100;BME280;72972;51.784;4.660;2023-12-20T10:39:43;101787.63;;;8.36;86.67
83100;BME280;72972;51.784;4.660;2023-12-20T10:42:12;101781.28;;;8.36;86.85
83100;BME280;72972;51.784;4.660;2023-12-20T10:44:39;101774.28;;;8.33;86.84
83100;BME280;72972;51.784;4.660;2023-12-20T10:47:05;101761.75;;;8.31;86.39
83100;BME280;72972;51.784;4.660;2023-12-20T10:49:34;101768.97;;;8.32;86.85
83100;BME280;72972;51.784;4.660;2023-12-20T10:52:02;101784.44;;;8.49;86.82
83100;BME280;72972;51.784;4.660;2023-12-20T10:54:32;101769.88;;;8.40;86.50
83100;BME280;72972;51.784;4.660;2023-12-20T10:56:58;101775.41;;;8.48;87.00
83100;BME280;72972;51.784;4.660;2023-12-20T10:59:27;101754.66;;;8.38;87.35
83100;BME280;72972;51.784;4.660;2023-12-20T11:01:54;101769.59;;;8.51;86.95
83100;BME280;72972;51.784;4.660;2023-12-20T11:04:47;101747.13;;;8.40;86.59
83100;BME280;72972;51.784;4.660;2023-12-20T11:09:58;101748.25;;;8.55;86.31
83100;BME280;72972;51.784;4.660;2023-12-20T11:12:37;101735.72;;;8.44;86.25
83100;BME280;72972;51.784;4.660;2023-12-20T11:15:07;101750.16;;;8.54;86.75
83100;BME280;72972;51.784;4.660;2023-12-20T11:17:38;101740.22;;;8.53;86.00
83100;BME280;72972;51.784;4.660;2023-12-20T11:20:05;101743.88;;;8.62;86.04
83100;BME280;72972;51.784;4.660;2023-12-20T11:22:32;101722.09;;;8.52;85.67
83100;BME280;72972;51.784;4.660;2023-12-20T11:25:06;101722.81;;;8.62;86.09
83100;BME280;72972;51.784;4.660;2023-12-20T11:27:43;101720.16;;;8.70;85.65
83100;BME280;72972;51.784;4.660;2023-12-20T11:30:09;101739.19;;;8.80;86.00
83100;BME280;72972;51.784;4.660;2023-12-20T11:32:36;101733.00;;;8.78;85.67
83100;BME280;72972;51.784;4.660;2023-12-20T11:37:38;101739.22;;;8.88;84.69
83100;BME280;72972;51.784;4.660;2023-12-20T11:40:11;101720.19;;;8.78;85.70
83100;BME280;72972;51.784;4.660;2023-12-20T11:42:41;101707.38;;;8.79;84.48
83100;BME280;72972;51.784;4.660;2023-12-20T11:45:14;101723.81;;;8.87;85.40
83100;BME280;72972;51.784;4.660;2023-12-20T11:47:46;101711.16;;;8.86;85.57
83100;BME280;72972;51.784;4.660;2023-12-20T11:50:12;101695.13;;;8.91;84.63
83100;BME280;72972;51.784;4.660;2023-12-20T11:52:41;101711.78;;;9.14;83.66
83100;BME280;72972;51.784;4.660;2023-12-20T11:55:06;101687.66;;;9.09;84.50
83100;BME280;72972;51.784;4.660;2023-12-20T11:57:33;101682.50;;;9.06;84.05
83100;BME280;72972;51.784;4.660;2023-12-20T11:59:59;101690.22;;;9.11;84.09
83100;BME280;72972;51.784;4.660;2023-12-20T12:02:24;101682.72;;;9.13;83.28
83100;BME280;72972;51.784;4.660;2023-12-20T12:04:50;101662.66;;;9.04;84.09
83100;BME280;72972;51.784;4.660;2023-12-20T12:07:16;101696.91;;;9.16;83.71
83100;BME280;72972;51.784;4.660;2023-12-20T12:09:43;101707.16;;;9.22;83.43
83100;BME280;72972;51.784;4.660;2023-12-20T12:12:10;101666.59;;;9.02;83.68
83100;BME280;72972;51.784;4.660;2023-12-20T12:14:37;101707.69;;;9.26;84.25
83100;BME280;72972;51.784;4.660;2023-12-20T12:17:12;101699.47;;;9.18;84.36
83100;BME280;72972;51.784;4.660;2023-12-20T12:19:39;101695.72;;;9.27;83.92
83100;BME280;72972;51.784;4.660;2023-12-20T12:24:43;101700.53;;;9.33;83.89
83100;BME280;72972;51.784;4.660;2023-12-20T12:27:15;101683.75;;;9.28;83.52
83100;BME280;72972;51.784;4.660;2023-12-20T12:29:43;101690.78;;;9.30;83.64
83100;BME280;72972;51.784;4.660;2023-12-20T12:32:25;101693.88;;;9.35;83.64
83100;BME280;72972;51.784;4.660;2023-12-20T12:34:50;101686.16;;;9.31;84.08
83100;BME280;72972;51.784;4.660;2023-12-20T12:37:16;101675.38;;;9.21;83.83
83100;BME280;72972;51.784;4.660;2023-12-20T12:39:42;101661.31;;;9.16;84.81
83100;BME280;72972;51.784;4.660;2023-12-20T12:42:08;101688.03;;;9.30;84.31
83100;BME280;72972;51.784;4.660;2023-12-20T12:44:33;101682.03;;;9.27;84.38
83100;BME280;72972;51.784;4.660;2023-12-20T12:46:59;101649.00;;;9.12;84.09
83100;BME280;72972;51.784;4.660;2023-12-20T12:49:25;101670.41;;;9.25;84.28
83100;BME280;72972;51.784;4.660;2023-12-20T12:51:51;101640.78;;;9.04;84.00
83100;BME280;72972;51.784;4.660;2023-12-20T12:54:17;101670.09;;;9.28;83.52
83100;BME280;72972;51.784;4.660;2023-12-20T12:56:44;101674.00;;;9.25;83.98
83100;BME280;72972;51.784;4.660;2023-12-20T12:59:12;101674.34;;;9.30;84.19
83100;BME280;72972;51.784;4.660;2023-12-20T13:01:38;101667.50;;;9.26;84.34
83100;BME280;72972;51.784;4.660;2023-12-20T13:04:04;101636.34;;;9.11;84.06
83100;BME280;72972;51.784;4.660;2023-12-20T13:06:36;101619.91;;;9.03;83.67
83100;BME280;72972;51.784;4.660;2023-12-20T13:09:08;101653.47;;;9.21;83.91